createdAt,value
2022-08-27T00:00:40.067Z,46.45
2022-08-27T00:03:09.526Z,43.10
2022-08-27T00:05:38.612Z,35.97
2022-08-27T00:08:07.706Z,37.83
2022-08-27T00:10:36.205Z,48.80
2022-08-27T00:13:04.886Z,42.53
2022-08-27T00:15:33.935Z,45.35
2022-08-27T00:18:03.885Z,42.78
2022-08-27T00:20:32.787Z,47.67
2022-08-27T00:23:01.696Z,49.20
2022-08-27T00:25:30.278Z,49.45
2022-08-27T00:27:58.946Z,40.40
2022-08-27T00:30:27.638Z,52.78
2022-08-27T00:32:57.165Z,46.40
2022-08-27T00:35:27.087Z,56.97
2022-08-27T00:37:55.844Z,42.58
2022-08-27T00:40:24.689Z,50.00
2022-08-27T00:42:53.272Z,47.83
2022-08-27T00:45:23.288Z,45.92
2022-08-27T00:47:54.633Z,44.17
2022-08-27T00:50:26.778Z,38.33
2022-08-27T00:52:58.089Z,49.17
2022-08-27T00:55:28.640Z,49.40
2022-08-27T00:58:00.058Z,47.95
2022-08-27T01:00:31.610Z,52.40
2022-08-27T01:03:00.081Z,48.10
2022-08-27T01:05:29.092Z,44.58
2022-08-27T01:08:00.837Z,36.67
2022-08-27T01:10:30.544Z,49.47
2022-08-27T01:12:59.589Z,53.17
2022-08-27T01:15:29.633Z,56.35
2022-08-27T01:17:59.273Z,53.63
2022-08-27T01:20:30.087Z,59.50
2022-08-27T01:23:03.648Z,44.33
2022-08-27T01:25:33.963Z,60.80
2022-08-27T01:28:03.710Z,50.47
2022-08-27T01:30:32.556Z,59.78
2022-08-27T01:33:01.258Z,53.13
2022-08-27T01:35:30.531Z,56.55
2022-08-27T01:38:02.013Z,47.90
2022-08-27T01:40:30.777Z,44.10
2022-08-27T01:43:01.267Z,55.58
2022-08-27T01:45:30.824Z,51.65
2022-08-27T01:48:00.126Z,53.03
2022-08-27T01:50:31.873Z,58.78
2022-08-27T01:53:03.385Z,50.78
2022-08-27T01:55:31.955Z,51.55
2022-08-27T01:58:01.799Z,47.67
2022-08-27T02:00:32.220Z,52.85
2022-08-27T02:03:01.431Z,50.67
2022-08-27T02:05:30.479Z,47.55
2022-08-27T02:07:59.477Z,46.05
2022-08-27T02:10:29.160Z,51.53
2022-08-27T02:12:57.869Z,51.25
2022-08-27T02:15:28.123Z,47.88
2022-08-27T02:17:57.258Z,46.63
2022-08-27T02:20:27.956Z,49.05
2022-08-27T02:22:58.016Z,46.75
2022-08-27T02:25:27.844Z,47.35
2022-08-27T02:28:01.507Z,55.88
2022-08-27T02:30:32.835Z,48.05
2022-08-27T02:33:01.954Z,45.55
2022-08-27T02:35:30.910Z,41.47
2022-08-27T02:37:59.970Z,40.40
2022-08-27T02:40:28.969Z,42.95
2022-08-27T02:42:57.497Z,49.67
2022-08-27T02:45:25.993Z,41.35
2022-08-27T02:47:55.950Z,49.38
2022-08-27T02:50:27.015Z,47.25
2022-08-27T02:52:56.223Z,41.60
2022-08-27T02:55:24.868Z,47.20
2022-08-27T02:57:53.573Z,42.47
2022-08-27T03:00:22.911Z,42.25
2022-08-27T03:02:52.151Z,49.42
2022-08-27T03:05:22.389Z,72.95
2022-08-27T03:07:51.320Z,55.33
2022-08-27T03:10:21.287Z,60.50
2022-08-27T03:12:50.533Z,63.47
2022-08-27T03:15:19.798Z,75.53
2022-08-27T03:18:06.142Z,67.20
2022-08-27T03:23:04.352Z,75.65
2022-08-27T03:25:33.982Z,86.57
2022-08-27T03:28:02.542Z,71.70
2022-08-27T03:30:31.970Z,81.07
2022-08-27T03:33:00.536Z,91.60
2022-08-27T03:35:29.102Z,87.85
2022-08-27T03:37:58.822Z,69.40
2022-08-27T03:40:28.817Z,79.18
2022-08-27T03:42:57.342Z,81.28
2022-08-27T03:45:27.341Z,85.05
2022-08-27T03:47:55.898Z,92.22
2022-08-27T03:50:24.994Z,93.22
2022-08-27T03:52:53.558Z,92.97
2022-08-27T03:55:22.658Z,81.50
2022-08-27T03:57:52.875Z,99.80
2022-08-27T04:00:21.614Z,88.10
2022-08-27T04:02:50.305Z,97.43
2022-08-27T04:05:18.920Z,96.65
2022-08-27T04:07:47.575Z,96.45
2022-08-27T04:10:17.170Z,101.80
2022-08-27T04:12:46.073Z,99.55
2022-08-27T04:15:16.057Z,101.03
2022-08-27T04:17:44.538Z,89.47
2022-08-27T04:20:34.480Z,89.97
2022-08-27T04:23:02.495Z,86.57
2022-08-27T04:25:31.115Z,100.35
2022-08-27T04:28:01.074Z,94.03
2022-08-27T04:30:31.495Z,88.43
2022-08-27T04:33:00.508Z,100.00
2022-08-27T04:35:28.989Z,100.90
2022-08-27T04:37:57.651Z,93.88
2022-08-27T04:40:47.260Z,109.47
2022-08-27T04:43:17.702Z,111.68
2022-08-27T04:45:48.870Z,115.32
2022-08-27T04:48:18.794Z,117.60
2022-08-27T04:50:48.270Z,98.50
2022-08-27T04:53:17.853Z,104.70
2022-08-27T04:55:46.777Z,94.63
2022-08-27T04:58:15.839Z,95.55
2022-08-27T05:00:44.928Z,100.30
2022-08-27T05:03:15.528Z,84.57
2022-08-27T05:05:44.566Z,94.07
2022-08-27T05:08:13.769Z,100.95
2022-08-27T05:10:42.915Z,95.90
2022-08-27T05:13:12.216Z,100.40
2022-08-27T05:15:41.274Z,86.97
2022-08-27T05:18:10.633Z,92.50
2022-08-27T05:20:46.232Z,87.40
2022-08-27T05:23:17.295Z,88.32
2022-08-27T05:25:46.878Z,78.75
2022-08-27T05:28:15.917Z,81.47
2022-08-27T05:30:46.674Z,69.97
2022-08-27T05:33:33.311Z,86.03
2022-08-27T05:36:03.757Z,74.40
2022-08-27T05:38:32.628Z,71.53
2022-08-27T05:41:05.862Z,74.32
2022-08-27T05:43:34.610Z,69.50
2022-08-27T05:46:05.546Z,66.07
2022-08-27T05:48:36.163Z,68.53
2022-08-27T05:51:11.185Z,64.65
2022-08-27T05:53:40.517Z,63.53
2022-08-27T05:56:14.374Z,65.90
2022-08-27T05:59:00.420Z,66.22
2022-08-27T06:01:29.218Z,54.92
2022-08-27T06:03:58.100Z,61.28
2022-08-27T06:06:28.555Z,62.25
2022-08-27T06:08:57.042Z,58.90
2022-08-27T06:11:25.775Z,61.40
2022-08-27T06:13:54.246Z,49.38
2022-08-27T06:16:23.088Z,51.83
2022-08-27T06:18:52.311Z,45.38
2022-08-27T06:21:24.640Z,47.25
2022-08-27T06:23:55.112Z,47.17
2022-08-27T06:26:24.809Z,50.63
2022-08-27T06:28:53.335Z,48.58
2022-08-27T06:31:23.739Z,35.58
2022-08-27T06:33:53.891Z,34.10
2022-08-27T06:36:23.809Z,30.63
2022-08-27T06:38:56.323Z,37.38
2022-08-27T06:41:26.723Z,40.05
2022-08-27T06:43:56.061Z,38.38
2022-08-27T06:46:26.648Z,44.78
2022-08-27T06:48:56.224Z,41.78
2022-08-27T06:51:26.495Z,52.70
2022-08-27T06:53:57.454Z,49.90
2022-08-27T06:56:26.428Z,58.13
2022-08-27T06:58:55.757Z,70.88
2022-08-27T07:01:25.290Z,75.63
2022-08-27T07:03:57.178Z,72.43
2022-08-27T07:06:26.171Z,79.90
2022-08-27T07:08:57.215Z,90.25
2022-08-27T07:11:27.203Z,96.55
2022-08-27T07:13:56.355Z,94.97
2022-08-27T07:16:26.740Z,89.82
2022-08-27T07:18:56.673Z,102.70
2022-08-27T07:21:28.946Z,95.68
2022-08-27T07:24:03.789Z,110.20
2022-08-27T07:26:33.011Z,106.50
2022-08-27T07:29:01.639Z,97.65
2022-08-27T07:31:30.188Z,88.28
2022-08-27T07:33:58.829Z,97.28
2022-08-27T07:36:27.404Z,92.88
2022-08-27T07:39:01.400Z,93.30
2022-08-27T07:41:32.442Z,84.53
2022-08-27T07:44:17.806Z,118.60
2022-08-27T07:46:49.073Z,116.45
2022-08-27T07:49:18.284Z,107.78
2022-08-27T07:51:47.005Z,100.05
2022-08-27T07:54:16.960Z,109.55
2022-08-27T07:56:55.785Z,112.78
2022-08-27T07:59:26.279Z,104.93
2022-08-27T08:01:56.452Z,113.53
2022-08-27T08:04:26.853Z,103.75
2022-08-27T08:06:55.971Z,105.65
2022-08-27T08:09:25.281Z,108.28
2022-08-27T08:11:55.691Z,90.20
2022-08-27T08:14:24.291Z,93.72
2022-08-27T08:16:53.012Z,89.32
2022-08-27T08:19:22.418Z,80.85
2022-08-27T08:21:57.205Z,68.57
2022-08-27T08:24:29.095Z,64.20
2022-08-27T08:27:00.409Z,55.80
2022-08-27T08:29:30.368Z,47.85
2022-08-27T08:31:59.496Z,45.65
2022-08-27T08:34:28.970Z,34.78
2022-08-27T08:36:57.453Z,29.20
2022-08-27T08:39:26.248Z,26.50
2022-08-27T08:41:55.814Z,30.95
2022-08-27T08:44:32.180Z,27.63
2022-08-27T08:47:22.156Z,29.77
2022-08-27T08:50:27.287Z,39.55
2022-08-27T08:52:58.578Z,37.90
2022-08-27T08:55:34.612Z,61.10
2022-08-27T08:58:10.061Z,55.58
2022-08-27T09:00:40.637Z,59.15
2022-08-27T09:03:09.735Z,63.03
2022-08-27T09:05:39.359Z,53.80
2022-08-27T09:08:31.877Z,57.42
2022-08-27T09:11:01.918Z,49.15
2022-08-27T09:13:32.730Z,47.10
2022-08-27T09:16:03.735Z,51.33
2022-08-27T09:18:35.298Z,43.55
2022-08-27T09:21:10.110Z,41.55
2022-08-27T09:23:42.641Z,40.45
2022-08-27T09:26:18.936Z,40.42
2022-08-27T09:29:05.123Z,39.80
2022-08-27T09:34:03.536Z,31.92
2022-08-27T09:36:32.909Z,32.60
2022-08-27T09:39:03.154Z,29.60
2022-08-27T09:41:33.400Z,26.05
2022-08-27T09:44:02.889Z,21.05
2022-08-27T09:46:31.741Z,20.50
2022-08-27T09:49:00.434Z,15.82
2022-08-27T09:51:31.232Z,12.32
2022-08-27T09:54:01.191Z,15.02
2022-08-27T09:56:31.309Z,16.63
2022-08-27T09:59:03.346Z,14.52
2022-08-27T10:01:33.389Z,15.95
2022-08-27T10:04:28.547Z,15.85
2022-08-27T10:06:59.751Z,11.52
2022-08-27T10:09:32.005Z,11.73
2022-08-27T10:12:04.059Z,9.40
2022-08-27T10:14:35.124Z,13.38
2022-08-27T10:17:10.829Z,18.30
2022-08-27T10:19:48.275Z,22.48
2022-08-27T10:22:24.256Z,24.77
2022-08-27T10:24:57.990Z,25.48
2022-08-27T10:27:31.868Z,22.50
2022-08-27T10:30:03.802Z,32.97
2022-08-27T10:32:42.171Z,38.83
2022-08-27T10:35:13.563Z,51.70
2022-08-27T10:37:46.541Z,50.00
2022-08-27T10:40:18.085Z,49.35
2022-08-27T10:42:57.743Z,51.60
2022-08-27T10:45:31.826Z,56.42
2022-08-27T10:48:06.351Z,49.53
2022-08-27T10:50:39.615Z,51.95
2022-08-27T10:53:10.938Z,49.95
2022-08-27T10:55:41.595Z,51.08
2022-08-27T10:58:22.426Z,54.00
2022-08-27T11:00:53.961Z,48.47
2022-08-27T11:03:32.185Z,46.88
2022-08-27T11:06:02.678Z,43.85
2022-08-27T11:08:36.986Z,45.45
2022-08-27T11:11:49.870Z,35.72
2022-08-27T11:14:01.115Z,42.53
2022-08-27T11:16:34.852Z,49.30
2022-08-27T11:19:05.778Z,47.95
2022-08-27T11:21:36.501Z,33.63
2022-08-27T11:24:13.338Z,34.05
2022-08-27T11:26:44.030Z,34.30
2022-08-27T11:29:16.242Z,30.77
2022-08-27T11:31:50.287Z,24.40
2022-08-27T11:34:21.580Z,30.02
2022-08-27T11:36:57.174Z,32.20
2022-08-27T11:39:35.347Z,32.90
2022-08-27T11:42:07.256Z,28.55
2022-08-27T11:44:41.246Z,30.80
2022-08-27T11:47:14.954Z,32.20
2022-08-27T11:49:45.722Z,40.50
2022-08-27T11:52:15.260Z,40.45
2022-08-27T11:54:49.645Z,41.95
2022-08-27T11:57:28.287Z,40.70
2022-08-27T11:59:56.869Z,45.80
2022-08-27T12:02:27.051Z,42.33
2022-08-27T12:04:57.783Z,43.22
2022-08-27T12:07:29.767Z,40.75
2022-08-27T12:10:20.185Z,37.13
2022-08-27T12:12:56.149Z,44.38
2022-08-27T12:15:33.987Z,45.42
2022-08-27T12:18:08.723Z,41.17
2022-08-27T12:20:44.080Z,34.92
2022-08-27T12:23:35.587Z,22.70
2022-08-27T12:26:16.692Z,22.02
2022-08-27T12:28:46.873Z,27.63
2022-08-27T12:31:18.931Z,32.13
2022-08-27T12:33:48.569Z,30.50
2022-08-27T12:36:27.508Z,27.20
2022-08-27T12:38:58.116Z,13.75
2022-08-27T12:41:27.983Z,14.77
2022-08-27T12:44:08.942Z,12.88
2022-08-27T12:46:40.664Z,18.05
2022-08-27T12:49:37.906Z,22.35
2022-08-27T12:51:59.704Z,22.52
2022-08-27T12:54:34.208Z,30.50
2022-08-27T12:57:07.377Z,30.27
2022-08-27T12:59:51.352Z,42.50
2022-08-27T13:02:28.879Z,44.35
2022-08-27T13:04:57.513Z,57.17
2022-08-27T13:07:33.015Z,55.72
2022-08-27T13:10:11.360Z,58.60
2022-08-27T13:12:40.032Z,60.10
2022-08-27T13:15:11.438Z,62.03
2022-08-27T13:17:44.797Z,58.75
2022-08-27T13:20:17.832Z,62.38
2022-08-27T13:22:47.204Z,66.40
2022-08-27T13:25:24.580Z,72.15
2022-08-27T13:27:59.369Z,65.93
2022-08-27T13:30:36.294Z,67.82
2022-08-27T13:33:06.141Z,65.20
2022-08-27T13:35:34.787Z,63.88
2022-08-27T13:38:04.322Z,62.85
2022-08-27T13:40:34.661Z,69.03
2022-08-27T13:43:05.209Z,55.47
2022-08-27T13:45:39.517Z,60.53
2022-08-27T13:48:08.627Z,52.30
2022-08-27T13:50:38.392Z,52.75
2022-08-27T13:53:26.208Z,48.33
2022-08-27T13:55:55.843Z,46.15
2022-08-27T13:58:27.051Z,39.72
2022-08-27T14:00:57.910Z,39.97
2022-08-27T14:03:27.642Z,42.65
2022-08-27T14:05:56.988Z,38.47
2022-08-27T14:08:29.639Z,35.08
2022-08-27T14:11:01.315Z,33.30
2022-08-27T14:13:31.588Z,30.35
2022-08-27T14:16:02.031Z,30.15
2022-08-27T14:18:55.116Z,29.45
2022-08-27T14:21:19.946Z,36.50
2022-08-27T14:23:48.472Z,35.63
2022-08-27T14:26:17.895Z,41.25
2022-08-27T14:28:46.553Z,40.15
2022-08-27T14:31:16.975Z,42.58
2022-08-27T14:33:47.307Z,40.75
2022-08-27T14:36:16.046Z,40.75
2022-08-27T14:38:46.558Z,32.00
2022-08-27T14:41:15.276Z,37.35
2022-08-27T14:43:49.089Z,38.80
2022-08-27T14:46:22.347Z,35.30
2022-08-27T14:48:51.621Z,36.53
2022-08-27T14:51:24.055Z,37.20
2022-08-27T14:53:52.998Z,33.70
2022-08-27T14:56:22.302Z,38.00
2022-08-27T14:58:50.980Z,37.85
2022-08-27T15:01:22.896Z,35.00
2022-08-27T15:03:52.353Z,35.92
2022-08-27T15:06:23.570Z,35.03
2022-08-27T15:08:52.775Z,44.05
2022-08-27T15:11:23.504Z,37.38
2022-08-27T15:13:52.749Z,45.80
2022-08-27T15:16:29.817Z,35.70
2022-08-27T15:19:00.637Z,44.15
2022-08-27T15:21:30.502Z,34.75
2022-08-27T15:24:00.307Z,44.33
2022-08-27T15:26:29.026Z,36.13
2022-08-27T15:28:57.646Z,41.20
2022-08-27T15:31:26.293Z,45.90
2022-08-27T15:33:56.491Z,41.58
2022-08-27T15:36:25.513Z,54.00
2022-08-27T15:38:56.476Z,41.38
2022-08-27T15:41:28.662Z,46.00
2022-08-27T15:43:58.676Z,40.72
2022-08-27T15:46:27.619Z,43.58
2022-08-27T15:48:57.650Z,39.20
2022-08-27T15:51:29.126Z,42.15
2022-08-27T15:53:57.638Z,46.10
2022-08-27T15:56:26.215Z,39.85
2022-08-27T15:58:55.383Z,39.38
2022-08-27T16:01:25.874Z,40.60
2022-08-27T16:03:55.419Z,44.85
2022-08-27T16:06:25.748Z,39.97
2022-08-27T16:08:55.623Z,43.85
2022-08-27T16:11:25.519Z,40.50
2022-08-27T16:13:55.598Z,41.42
2022-08-27T16:16:31.194Z,43.95
2022-08-27T16:19:01.275Z,44.00
2022-08-27T16:21:31.736Z,45.50
2022-08-27T16:24:00.443Z,39.70
2022-08-27T16:26:29.111Z,41.75
2022-08-27T16:28:57.732Z,39.13
2022-08-27T16:31:26.677Z,32.08
2022-08-27T16:33:56.382Z,36.67
2022-08-27T16:36:24.912Z,36.85
2022-08-27T16:38:55.678Z,33.47
2022-08-27T16:41:24.542Z,38.03
2022-08-27T16:43:53.231Z,36.65
2022-08-27T16:46:22.032Z,35.42
2022-08-27T16:49:08.409Z,38.55
2022-08-27T16:51:37.689Z,35.45
2022-08-27T16:54:09.754Z,36.95
2022-08-27T16:56:40.226Z,33.47
2022-08-27T16:59:13.251Z,34.55
2022-08-27T17:01:43.087Z,35.45
2022-08-27T17:04:21.369Z,34.20
2022-08-27T17:06:56.805Z,36.40
2022-08-27T17:09:28.611Z,35.38
2022-08-27T17:11:58.397Z,35.10
2022-08-27T17:14:27.691Z,27.25
2022-08-27T17:16:56.424Z,33.17
2022-08-27T17:19:26.381Z,32.60
2022-08-27T17:21:55.392Z,33.38
2022-08-27T17:24:24.287Z,34.92
2022-08-27T17:26:54.384Z,35.00
2022-08-27T17:29:23.215Z,36.63
2022-08-27T17:31:51.874Z,35.53
2022-08-27T17:34:23.005Z,37.53
2022-08-27T17:36:51.817Z,40.88
2022-08-27T17:39:22.689Z,43.13
2022-08-27T17:41:52.225Z,38.05
2022-08-27T17:44:36.333Z,38.85
2022-08-27T17:47:06.358Z,35.40
2022-08-27T17:49:35.086Z,37.75
2022-08-27T17:52:05.451Z,41.15
2022-08-27T17:54:35.046Z,37.33
2022-08-27T17:57:04.906Z,35.75
2022-08-27T17:59:35.052Z,38.10
2022-08-27T18:02:04.499Z,35.10
2022-08-27T18:04:33.259Z,40.00
2022-08-27T18:07:02.508Z,37.88
2022-08-27T18:09:31.270Z,39.13
2022-08-27T18:12:00.056Z,35.92
2022-08-27T18:14:28.774Z,34.90
2022-08-27T18:17:01.224Z,37.38
2022-08-27T18:19:30.275Z,33.17
2022-08-27T18:21:58.785Z,26.45
2022-08-27T18:24:27.392Z,22.63
2022-08-27T18:26:55.971Z,20.20
2022-08-27T18:29:24.454Z,22.67
2022-08-27T18:31:53.066Z,17.55
2022-08-27T18:34:23.546Z,20.98
2022-08-27T18:36:52.764Z,19.27
2022-08-27T18:39:21.559Z,18.75
2022-08-27T18:41:56.974Z,18.80
2022-08-27T18:44:27.015Z,20.80
2022-08-27T18:46:55.656Z,18.38
2022-08-27T18:49:26.794Z,22.33
2022-08-27T18:51:56.112Z,17.88
2022-08-27T18:54:27.389Z,16.90
2022-08-27T18:56:55.996Z,16.50
2022-08-27T18:59:29.933Z,20.27
2022-08-27T19:01:58.827Z,19.13
2022-08-27T19:04:29.274Z,18.30
2022-08-27T19:06:57.952Z,22.63
2022-08-27T19:09:26.866Z,18.33
2022-08-27T19:11:55.427Z,20.25
2022-08-27T19:14:26.373Z,20.33
2022-08-27T19:16:56.210Z,23.27
2022-08-27T19:19:25.875Z,22.23
2022-08-27T19:21:55.815Z,20.35
2022-08-27T19:24:29.002Z,25.48
2022-08-27T19:26:57.811Z,25.05
2022-08-27T19:29:26.909Z,28.65
2022-08-27T19:31:55.511Z,25.73
2022-08-27T19:34:25.308Z,29.45
2022-08-27T19:36:54.144Z,33.05
2022-08-27T19:39:26.336Z,31.02
2022-08-27T19:41:55.086Z,32.65
2022-08-27T19:44:23.649Z,39.03
2022-08-27T19:46:53.258Z,39.40
2022-08-27T19:49:21.758Z,36.83
2022-08-27T19:51:50.406Z,39.45
2022-08-27T19:54:19.331Z,53.88
2022-08-27T19:56:49.275Z,55.78
2022-08-27T19:59:21.730Z,52.58
2022-08-27T20:01:52.839Z,59.33
2022-08-27T20:04:21.750Z,55.92
2022-08-27T20:06:50.363Z,50.63
2022-08-27T20:09:21.350Z,51.25
2022-08-27T20:11:51.294Z,56.58
2022-08-27T20:14:20.296Z,51.78
2022-08-27T20:16:49.724Z,49.28
2022-08-27T20:19:18.938Z,51.60
2022-08-27T20:21:47.993Z,56.63
2022-08-27T20:24:16.729Z,56.20
2022-08-27T20:26:46.185Z,58.80
2022-08-27T20:29:29.455Z,58.58
2022-08-27T20:32:01.627Z,64.57
2022-08-27T20:34:32.657Z,68.78
2022-08-27T20:37:02.779Z,63.67
2022-08-27T20:39:36.119Z,57.65
2022-08-27T20:42:06.181Z,50.53
2022-08-27T20:44:36.331Z,49.83
2022-08-27T20:47:05.596Z,48.78
2022-08-27T20:49:35.730Z,46.33
2022-08-27T20:52:06.725Z,49.15
2022-08-27T20:54:38.407Z,47.30
2022-08-27T20:57:08.249Z,47.88
2022-08-27T20:59:56.121Z,49.03
2022-08-27T21:02:37.980Z,50.08
2022-08-27T21:05:10.103Z,47.53
2022-08-27T21:07:38.739Z,48.65
2022-08-27T21:10:08.383Z,49.72
2022-08-27T21:12:37.343Z,48.40
2022-08-27T21:15:08.316Z,49.25
2022-08-27T21:17:37.098Z,45.85
2022-08-27T21:20:06.730Z,49.03
2022-08-27T21:22:35.439Z,51.28
2022-08-27T21:25:04.771Z,42.55
2022-08-27T21:27:33.953Z,47.65
2022-08-27T21:30:04.101Z,55.50
2022-08-27T21:32:35.422Z,49.30
2022-08-27T21:35:04.439Z,48.80
2022-08-27T21:37:33.338Z,51.60
2022-08-27T21:40:02.260Z,49.40
2022-08-27T21:42:31.335Z,51.42
2022-08-27T21:45:00.183Z,51.47
2022-08-27T21:47:30.203Z,59.65
2022-08-27T21:50:00.837Z,61.00
2022-08-27T21:52:29.735Z,55.83
2022-08-27T21:54:58.940Z,62.35
2022-08-27T21:57:27.558Z,65.95
2022-08-27T21:59:56.230Z,57.75
2022-08-27T22:02:40.837Z,61.88
2022-08-27T22:05:11.424Z,61.42
2022-08-27T22:07:40.025Z,67.65
2022-08-27T22:10:09.143Z,62.95
2022-08-27T22:12:38.315Z,69.18
2022-08-27T22:15:09.140Z,63.00
2022-08-27T22:17:37.932Z,65.93
2022-08-27T22:20:09.151Z,67.95
2022-08-27T22:22:39.876Z,57.28
2022-08-27T22:25:10.077Z,54.80
2022-08-27T22:27:39.137Z,54.92
2022-08-27T22:30:11.356Z,54.70
2022-08-27T22:32:40.683Z,53.40
2022-08-27T22:35:10.309Z,57.35
2022-08-27T22:37:41.014Z,55.58
2022-08-27T22:40:18.513Z,61.60
2022-08-27T22:42:48.854Z,58.45
2022-08-27T22:45:17.938Z,62.97
2022-08-27T22:47:47.349Z,68.65
2022-08-27T22:50:16.253Z,62.88
2022-08-27T22:52:47.778Z,65.80
2022-08-27T22:55:18.815Z,69.07
2022-08-27T22:57:47.562Z,67.28
2022-08-27T23:00:19.572Z,66.75
2022-08-27T23:02:48.720Z,64.95
2022-08-27T23:05:17.774Z,61.97
2022-08-27T23:07:48.314Z,61.55
2022-08-27T23:10:18.288Z,60.85
2022-08-27T23:12:47.057Z,60.33
2022-08-27T23:15:17.819Z,73.03
2022-08-27T23:17:46.626Z,69.45
2022-08-27T23:20:15.731Z,62.67
2022-08-27T23:22:45.738Z,70.03
2022-08-27T23:25:34.155Z,68.30
2022-08-27T23:28:06.274Z,67.45
2022-08-27T23:30:35.258Z,59.80
2022-08-27T23:33:04.037Z,64.05
2022-08-27T23:35:32.547Z,57.72
2022-08-27T23:38:01.037Z,63.00
2022-08-27T23:40:31.163Z,52.35
2022-08-27T23:42:59.889Z,56.58
2022-08-27T23:45:29.362Z,57.67
2022-08-27T23:47:58.034Z,56.90
2022-08-27T23:50:33.721Z,60.30
2022-08-27T23:53:03.179Z,56.78
2022-08-27T23:55:33.590Z,58.28
2022-08-27T23:58:02.611Z,56.97
